createdAt,value
2019-02-02T00:01:17.319Z,2.40
2019-02-02T00:03:46.898Z,2.20
2019-02-02T00:06:16.032Z,2.10
2019-02-02T00:08:44.984Z,1.90
2019-02-02T00:11:14.362Z,1.80
2019-02-02T00:13:43.868Z,1.80
2019-02-02T00:16:13.542Z,1.90
2019-02-02T00:18:43.187Z,2.00
2019-02-02T00:21:12.371Z,2.10
2019-02-02T00:23:41.239Z,2.30
2019-02-02T00:26:10.872Z,2.40
2019-02-02T00:28:40.289Z,2.60
2019-02-02T00:31:09.983Z,2.40
2019-02-02T00:33:39.935Z,2.30
2019-02-02T00:36:09.718Z,2.20
2019-02-02T00:38:39.385Z,2.00
2019-02-02T00:41:08.741Z,2.10
2019-02-02T00:43:38.672Z,2.10
2019-02-02T00:46:07.751Z,2.10
2019-02-02T00:48:36.683Z,2.20
2019-02-02T00:51:06.336Z,2.40
2019-02-02T00:53:35.320Z,2.40
2019-02-02T00:56:04.828Z,2.40
2019-02-02T00:58:33.961Z,2.50
2019-02-02T01:01:02.951Z,2.60
2019-02-02T01:03:31.795Z,2.70
2019-02-02T01:06:05.684Z,2.40
2019-02-02T01:08:34.823Z,2.10
2019-02-02T01:11:04.852Z,1.90
2019-02-02T01:13:33.732Z,1.80
2019-02-02T01:16:03.763Z,1.80
2019-02-02T01:18:32.651Z,1.80
2019-02-02T01:21:04.727Z,1.70
2019-02-02T01:23:33.753Z,1.70
2019-02-02T01:26:03.655Z,1.70
2019-02-02T01:28:32.696Z,1.70
2019-02-02T01:31:01.684Z,1.70
2019-02-02T01:33:31.096Z,1.80
2019-02-02T01:36:00.603Z,2.10
2019-02-02T01:38:29.551Z,2.30
2019-02-02T01:40:58.791Z,2.40
2019-02-02T01:43:28.007Z,2.40
2019-02-02T01:45:57.291Z,2.40
2019-02-02T01:48:26.175Z,2.30
2019-02-02T01:50:55.889Z,2.10
2019-02-02T01:53:24.683Z,1.90
2019-02-02T01:55:53.499Z,1.80
2019-02-02T01:58:22.389Z,1.70
2019-02-02T02:00:51.955Z,1.60
2019-02-02T02:03:20.936Z,1.50
2019-02-02T02:05:50.462Z,1.30
2019-02-02T02:08:19.545Z,1.30
2019-02-02T02:10:49.468Z,1.20
2019-02-02T02:13:19.328Z,1.20
2019-02-02T02:15:48.603Z,1.20
2019-02-02T02:18:17.508Z,1.20
2019-02-02T02:20:47.011Z,1.10
2019-02-02T02:23:15.984Z,1.10
2019-02-02T02:25:45.264Z,1.10
2019-02-02T02:28:14.424Z,1.10
2019-02-02T02:30:47.126Z,1.10
2019-02-02T02:33:14.383Z,1.10
2019-02-02T02:35:43.494Z,1.10
2019-02-02T02:38:12.822Z,1.10
2019-02-02T02:40:42.109Z,1.00
2019-02-02T02:43:11.289Z,1.10
2019-02-02T02:45:40.518Z,1.10
2019-02-02T02:48:10.283Z,1.10
2019-02-02T02:50:40.008Z,1.10
2019-02-02T02:53:08.958Z,1.10
2019-02-02T02:55:37.896Z,1.10
2019-02-02T02:58:07.398Z,1.10
2019-02-02T03:00:36.400Z,1.20
2019-02-02T03:03:06.100Z,1.30
2019-02-02T03:05:35.407Z,1.40
2019-02-02T03:08:04.461Z,1.50
2019-02-02T03:10:33.556Z,1.80
2019-02-02T03:13:05.579Z,2.00
2019-02-02T03:15:35.311Z,2.00
2019-02-02T03:18:05.019Z,2.00
2019-02-02T03:20:34.079Z,2.00
2019-02-02T03:23:04.681Z,2.00
2019-02-02T03:25:34.235Z,2.00
2019-02-02T03:28:03.642Z,1.90
2019-02-02T03:30:32.933Z,2.00
2019-02-02T03:33:02.660Z,2.00
2019-02-02T03:35:31.679Z,2.10
2019-02-02T03:38:00.905Z,2.10
2019-02-02T03:40:30.209Z,2.10
2019-02-02T03:42:59.326Z,1.90
2019-02-02T03:45:28.547Z,1.80
2019-02-02T03:47:57.496Z,1.70
2019-02-02T03:50:26.699Z,1.60
2019-02-02T03:52:56.313Z,1.70
2019-02-02T03:55:25.506Z,1.70
2019-02-02T03:57:55.104Z,1.70
2019-02-02T04:00:24.707Z,1.80
2019-02-02T04:02:53.680Z,1.90
2019-02-02T04:05:25.695Z,2.10
2019-02-02T04:07:54.866Z,2.10
2019-02-02T04:10:24.377Z,2.10
2019-02-02T04:12:53.303Z,2.10
2019-02-02T04:15:22.829Z,2.20
2019-02-02T04:17:51.785Z,2.20
2019-02-02T04:20:22.052Z,2.30
2019-02-02T04:22:51.829Z,2.20
2019-02-02T04:25:22.005Z,2.20
2019-02-02T04:27:52.079Z,2.20
2019-02-02T04:30:23.195Z,2.10
2019-02-02T04:32:52.527Z,2.10
2019-02-02T04:35:21.775Z,2.10
2019-02-02T04:37:50.828Z,1.90
2019-02-02T04:40:20.482Z,1.90
2019-02-02T04:42:50.348Z,2.00
2019-02-02T04:45:20.002Z,2.00
2019-02-02T04:47:49.197Z,2.00
2019-02-02T04:50:18.624Z,1.90
2019-02-02T04:52:47.969Z,1.80
2019-02-02T04:55:18.323Z,1.90
2019-02-02T04:57:48.142Z,2.00
2019-02-02T05:00:20.836Z,2.00
2019-02-02T05:02:50.429Z,2.10
2019-02-02T05:05:19.519Z,2.10
2019-02-02T05:07:49.363Z,2.00
2019-02-02T05:10:19.892Z,2.00
2019-02-02T05:12:49.763Z,2.00
2019-02-02T05:15:19.071Z,2.00
2019-02-02T05:17:47.982Z,2.10
2019-02-02T05:20:17.190Z,2.10
2019-02-02T05:22:46.767Z,2.10
2019-02-02T05:25:16.530Z,2.10
2019-02-02T05:27:45.463Z,2.10
2019-02-02T05:30:20.236Z,2.00
2019-02-02T05:32:49.808Z,2.10
2019-02-02T05:35:19.555Z,2.10
2019-02-02T05:37:48.821Z,2.10
2019-02-02T05:40:18.924Z,2.10
2019-02-02T05:42:48.135Z,2.10
2019-02-02T05:45:19.020Z,2.10
2019-02-02T05:47:48.377Z,2.00
2019-02-02T05:50:19.471Z,2.00
2019-02-02T05:52:48.603Z,1.80
2019-02-02T05:55:18.423Z,1.70
2019-02-02T05:57:47.622Z,1.70
2019-02-02T06:01:05.800Z,1.70
2019-02-02T06:03:34.965Z,1.70
2019-02-02T06:06:04.852Z,1.70
2019-02-02T06:08:34.507Z,1.80
2019-02-02T06:11:03.548Z,2.00
2019-02-02T06:13:32.839Z,2.20
2019-02-02T06:16:01.727Z,2.30
2019-02-02T06:18:30.604Z,2.20
2019-02-02T06:20:59.795Z,2.20
2019-02-02T06:23:29.263Z,2.20
2019-02-02T06:25:58.401Z,2.20
2019-02-02T06:28:27.919Z,2.10
2019-02-02T06:31:00.049Z,2.00
2019-02-02T06:33:28.211Z,1.70
2019-02-02T06:35:58.023Z,1.50
2019-02-02T06:38:26.997Z,1.40
2019-02-02T06:40:56.655Z,1.40
2019-02-02T06:43:25.476Z,1.40
2019-02-02T06:45:54.299Z,1.40
2019-02-02T06:48:24.096Z,1.40
2019-02-02T06:50:53.249Z,1.40
2019-02-02T06:53:22.920Z,1.40
2019-02-02T06:55:52.195Z,1.30
2019-02-02T06:58:21.816Z,1.10
2019-02-02T07:00:51.123Z,1.00
2019-02-02T07:03:20.091Z,1.00
2019-02-02T07:05:49.272Z,1.00
2019-02-02T07:08:18.845Z,1.10
2019-02-02T07:10:48.255Z,1.10
2019-02-02T07:13:17.548Z,1.20
2019-02-02T07:15:46.760Z,1.20
2019-02-02T07:18:15.844Z,1.30
2019-02-02T07:20:45.207Z,1.50
2019-02-02T07:23:14.304Z,1.70
2019-02-02T07:25:43.098Z,1.90
2019-02-02T07:28:11.975Z,2.10
2019-02-02T07:30:40.843Z,2.00
2019-02-02T07:33:09.711Z,2.20
2019-02-02T07:35:38.857Z,2.30
2019-02-02T07:38:08.446Z,2.50
2019-02-02T07:40:38.251Z,2.40
2019-02-02T07:43:07.480Z,2.40
2019-02-02T07:45:36.653Z,2.40
2019-02-02T07:48:06.036Z,2.40
2019-02-02T07:50:35.276Z,2.20
2019-02-02T07:53:07.389Z,2.10
2019-02-02T07:55:37.270Z,2.00
2019-02-02T07:58:08.428Z,2.00
2019-02-02T09:13:52.984Z,2.90
2019-02-02T09:16:22.547Z,3.10
2019-02-02T09:18:52.073Z,3.20
2019-02-02T09:21:21.379Z,3.30
2019-02-02T09:23:50.215Z,3.40
2019-02-02T09:26:19.440Z,3.50
2019-02-02T09:28:48.547Z,3.60
2019-02-02T09:31:17.580Z,3.50
2019-02-02T09:33:46.689Z,3.40
2019-02-02T09:36:16.919Z,3.20
2019-02-02T09:38:46.804Z,3.10
2019-02-02T09:41:15.672Z,3.10
2019-02-02T09:43:44.492Z,3.00
2019-02-02T09:46:13.662Z,3.00
2019-02-02T09:48:43.207Z,3.20
2019-02-02T09:51:13.056Z,3.20
2019-02-02T09:53:41.827Z,3.20
2019-02-02T09:56:10.660Z,3.40
2019-02-02T09:58:39.776Z,3.50
2019-02-02T10:01:08.639Z,3.30
2019-02-02T10:03:37.920Z,3.20
2019-02-02T10:06:07.535Z,3.20
2019-02-02T10:08:36.720Z,3.40
2019-02-02T10:11:06.031Z,3.60
2019-02-02T10:13:35.590Z,3.60
2019-02-02T10:16:05.536Z,3.50
2019-02-02T10:18:34.447Z,3.40
2019-02-02T10:21:04.436Z,3.40
2019-02-02T10:23:34.172Z,3.50
2019-02-02T10:26:05.144Z,3.60
2019-02-02T10:28:34.299Z,3.80
2019-02-02T10:31:03.535Z,3.90
2019-02-02T10:33:32.691Z,4.10
2019-02-02T10:36:01.792Z,4.30
2019-02-02T10:38:30.683Z,4.10
2019-02-02T10:40:59.495Z,4.10
2019-02-02T10:43:28.475Z,4.10
2019-02-02T10:45:57.355Z,4.10
2019-02-02T10:48:26.221Z,4.20
2019-02-02T10:50:55.175Z,4.40
2019-02-02T10:53:24.203Z,4.80
2019-02-02T10:55:53.543Z,4.80
2019-02-02T10:58:22.727Z,4.90
2019-02-02T11:00:52.288Z,5.10
2019-02-02T11:03:22.104Z,5.30
2019-02-02T11:05:51.257Z,5.40
2019-02-02T11:08:20.657Z,5.30
2019-02-02T11:10:50.054Z,5.20
2019-02-02T11:13:19.738Z,4.60
2019-02-02T11:15:49.483Z,4.20
2019-02-02T11:18:18.924Z,3.70
2019-02-02T11:20:48.864Z,3.40
2019-02-02T11:23:18.504Z,3.30
2019-02-02T11:25:48.219Z,3.60
2019-02-02T11:28:17.038Z,3.90
2019-02-02T11:30:46.014Z,4.10
2019-02-02T11:33:15.352Z,4.40
2019-02-02T11:35:44.547Z,4.60
2019-02-02T11:38:14.188Z,4.90
2019-02-02T11:40:43.491Z,5.10
2019-02-02T11:43:13.231Z,5.30
2019-02-02T11:45:42.915Z,5.60
2019-02-02T11:48:14.902Z,5.90
2019-02-02T11:50:43.148Z,5.90
2019-02-02T11:53:12.016Z,5.80
2019-02-02T11:55:41.166Z,5.60
2019-02-02T11:58:09.992Z,5.40
2019-02-02T12:00:41.143Z,5.30
2019-02-02T12:03:10.778Z,5.50
2019-02-02T12:05:40.077Z,5.90
2019-02-02T12:08:09.651Z,6.20
2019-02-02T12:10:38.896Z,6.50
2019-02-02T12:13:08.359Z,6.70
2019-02-02T12:15:37.603Z,7.00
2019-02-02T12:18:07.637Z,7.10
2019-02-02T12:20:36.660Z,6.60
2019-02-02T12:23:05.782Z,6.10
2019-02-02T12:25:35.403Z,5.70
2019-02-02T12:28:05.440Z,5.50
2019-02-02T12:30:35.811Z,5.40
2019-02-02T12:33:05.836Z,5.50
2019-02-02T12:35:35.107Z,5.70
2019-02-02T12:38:04.268Z,5.80
2019-02-02T12:40:34.161Z,5.90
2019-02-02T12:43:04.944Z,5.70
2019-02-02T12:45:48.851Z,5.40
2019-02-02T12:48:18.148Z,5.40
2019-02-02T12:50:47.656Z,5.10
2019-02-02T12:53:17.463Z,5.00
2019-02-02T12:55:46.461Z,4.90
2019-02-02T12:58:15.655Z,4.70
2019-02-02T13:00:44.546Z,4.60
2019-02-02T13:03:13.602Z,4.60
2019-02-02T13:05:43.079Z,4.60
2019-02-02T13:08:12.240Z,4.60
2019-02-02T13:10:41.744Z,4.60
2019-02-02T13:13:11.283Z,4.80
2019-02-02T13:15:40.570Z,5.10
2019-02-02T13:18:09.572Z,5.20
2019-02-02T13:20:39.057Z,5.00
2019-02-02T13:23:08.223Z,5.10
2019-02-02T13:25:37.212Z,5.00
2019-02-02T13:28:06.395Z,4.70
2019-02-02T13:30:36.745Z,4.60
2019-02-02T13:33:07.447Z,4.40
2019-02-02T13:35:40.144Z,4.10
2019-02-02T13:38:09.107Z,3.90
2019-02-02T13:40:38.755Z,3.90
2019-02-02T13:43:07.948Z,3.90
2019-02-02T13:45:37.580Z,3.80
2019-02-02T13:48:07.308Z,3.80
2019-02-02T13:50:36.725Z,3.90
2019-02-02T13:53:08.443Z,4.20
2019-02-02T13:55:39.818Z,4.50
2019-02-02T13:58:08.721Z,4.80
2019-02-02T14:00:38.342Z,5.00
2019-02-02T14:03:08.024Z,5.10
2019-02-02T14:05:37.554Z,5.70
2019-02-02T14:08:06.629Z,6.20
2019-02-02T14:10:35.857Z,6.40
2019-02-02T14:13:05.148Z,6.40
2019-02-02T14:15:34.608Z,6.50
2019-02-02T14:18:04.973Z,6.50
2019-02-02T14:20:34.357Z,6.40
2019-02-02T14:23:03.427Z,6.40
2019-02-02T14:25:32.500Z,6.70
2019-02-02T14:28:01.720Z,7.00
2019-02-02T14:30:31.267Z,7.20
2019-02-02T14:33:00.841Z,7.20
2019-02-02T14:35:30.057Z,7.10
2019-02-02T14:37:59.153Z,7.10
2019-02-02T14:40:28.221Z,7.10
2019-02-02T14:42:57.476Z,7.10
2019-02-02T14:45:27.598Z,7.20
2019-02-02T14:47:57.298Z,7.00
2019-02-02T14:50:26.765Z,7.10
2019-02-02T14:52:55.758Z,7.10
2019-02-02T14:55:27.143Z,7.10
2019-02-02T14:57:56.427Z,7.10
2019-02-02T15:00:27.523Z,7.00
2019-02-02T15:02:57.265Z,7.00
2019-02-02T15:05:26.783Z,6.90
2019-02-02T15:07:56.551Z,6.70
2019-02-02T15:10:26.140Z,6.50
2019-02-02T15:12:55.373Z,6.30
2019-02-02T15:15:24.393Z,6.00
2019-02-02T15:17:53.901Z,6.00
2019-02-02T15:20:36.813Z,6.00
2019-02-02T15:23:07.115Z,6.00
2019-02-02T15:25:36.731Z,6.00
2019-02-02T15:28:06.070Z,5.90
2019-02-02T15:30:35.778Z,5.90
2019-02-02T15:33:05.756Z,5.80
2019-02-02T15:35:34.655Z,5.80
2019-02-02T15:38:03.935Z,5.70
2019-02-02T15:40:33.027Z,5.90
2019-02-02T15:43:02.160Z,5.90
2019-02-02T15:45:31.620Z,5.80
2019-02-02T15:48:04.760Z,5.80
2019-02-02T15:50:34.544Z,5.80
2019-02-02T15:53:04.419Z,5.80
2019-02-02T15:55:33.316Z,5.80
2019-02-02T15:58:02.675Z,5.70
2019-02-02T16:00:34.469Z,5.70
2019-02-02T16:03:05.752Z,5.70
2019-02-02T16:05:36.397Z,5.60
2019-02-02T16:08:11.099Z,5.50
2019-02-02T16:10:40.116Z,5.40
2019-02-02T16:13:09.303Z,5.20
2019-02-02T16:15:38.566Z,5.00
2019-02-02T16:18:07.823Z,4.90
2019-02-02T16:20:41.905Z,5.00
2019-02-02T16:23:09.814Z,5.00
2019-02-02T16:25:39.018Z,5.00
2019-02-02T16:28:08.376Z,5.00
2019-02-02T16:30:37.673Z,5.10
2019-02-02T16:33:07.280Z,5.00
2019-02-02T16:35:36.527Z,5.00
2019-02-02T16:38:06.223Z,5.10
2019-02-02T16:40:35.200Z,5.10
2019-02-02T16:43:04.609Z,5.10
2019-02-02T16:45:33.887Z,5.10
2019-02-02T16:48:04.647Z,5.00
2019-02-02T16:50:33.891Z,4.90
2019-02-02T16:53:02.828Z,4.90
2019-02-02T16:55:32.414Z,4.80
2019-02-02T16:58:03.735Z,4.40
2019-02-02T17:00:33.377Z,4.30
2019-02-02T17:03:02.585Z,4.30
2019-02-02T17:05:32.175Z,4.30
2019-02-02T17:08:01.841Z,4.40
2019-02-02T17:10:35.446Z,4.50
2019-02-02T17:13:05.183Z,4.50
2019-02-02T17:15:34.846Z,4.50
2019-02-02T17:18:04.027Z,4.40
2019-02-02T17:20:42.311Z,4.40
2019-02-02T17:23:11.682Z,4.40
2019-02-02T17:25:41.149Z,4.40
2019-02-02T17:28:10.725Z,4.50
2019-02-02T17:30:40.124Z,4.50
2019-02-02T17:33:11.536Z,4.50
2019-02-02T17:35:41.047Z,4.50
2019-02-02T17:38:10.691Z,4.50
2019-02-02T17:40:40.568Z,4.50
2019-02-02T17:43:09.581Z,4.40
2019-02-02T17:45:38.459Z,4.30
2019-02-02T17:48:08.354Z,4.30
2019-02-02T17:50:37.765Z,4.40
2019-02-02T17:53:07.203Z,4.40
2019-02-02T17:55:36.435Z,4.30
2019-02-02T17:58:05.935Z,4.40
2019-02-02T18:00:42.185Z,4.50
2019-02-02T18:03:11.135Z,4.50
2019-02-02T18:05:40.669Z,4.50
2019-02-02T18:08:10.106Z,4.40
2019-02-02T18:10:39.423Z,4.40
2019-02-02T18:13:08.332Z,4.40
2019-02-02T18:15:37.320Z,4.30
2019-02-02T18:18:07.309Z,4.30
2019-02-02T18:20:36.622Z,4.30
2019-02-02T18:23:06.035Z,4.30
2019-02-02T18:25:35.255Z,4.30
2019-02-02T18:28:07.833Z,4.20
2019-02-02T18:30:37.423Z,4.20
2019-02-02T18:33:06.756Z,4.10
2019-02-02T18:35:35.824Z,4.10
2019-02-02T18:38:05.152Z,4.20
2019-02-02T18:40:34.467Z,4.20
2019-02-02T18:43:04.603Z,4.10
2019-02-02T18:45:33.471Z,4.10
2019-02-02T18:48:03.300Z,4.00
2019-02-02T18:50:32.299Z,3.90
2019-02-02T18:53:01.992Z,3.90
2019-02-02T18:55:46.986Z,3.90
2019-02-02T18:58:16.197Z,3.80
2019-02-02T19:00:46.119Z,3.80
2019-02-02T19:03:15.391Z,3.70
2019-02-02T19:05:45.099Z,3.60
2019-02-02T19:08:14.035Z,3.60
2019-02-02T19:10:43.296Z,3.60
2019-02-02T19:13:12.316Z,3.60
2019-02-02T19:15:41.687Z,3.60
2019-02-02T19:18:11.157Z,3.60
2019-02-02T19:20:40.856Z,3.60
2019-02-02T19:23:10.492Z,3.40
2019-02-02T19:25:39.776Z,3.30
2019-02-02T19:28:08.983Z,3.30
2019-02-02T19:30:38.583Z,3.30
2019-02-02T19:33:08.187Z,3.40
2019-02-02T19:35:37.427Z,3.40
2019-02-02T19:38:06.493Z,3.40
2019-02-02T19:40:35.827Z,3.30
2019-02-02T19:43:05.319Z,3.20
2019-02-02T19:45:34.488Z,3.20
2019-02-02T19:48:06.344Z,3.20
2019-02-02T19:50:36.516Z,3.10
2019-02-02T19:53:05.802Z,3.10
2019-02-02T19:55:34.752Z,3.10
2019-02-02T19:58:03.587Z,3.10
2019-02-02T20:00:33.007Z,3.20
2019-02-02T20:03:05.174Z,3.30
2019-02-02T20:05:34.819Z,3.20
2019-02-02T20:08:05.240Z,3.20
2019-02-02T20:10:34.855Z,3.30
2019-02-02T20:13:03.835Z,3.30
2019-02-02T20:15:33.372Z,3.20
2019-02-02T20:18:10.074Z,3.20
2019-02-02T20:20:35.847Z,3.20
2019-02-02T20:23:05.145Z,3.10
2019-02-02T20:25:34.751Z,3.20
2019-02-02T20:28:03.927Z,3.20
2019-02-02T20:30:32.928Z,3.20
2019-02-02T20:33:02.454Z,3.20
2019-02-02T20:35:40.839Z,3.30
2019-02-02T20:38:02.415Z,3.20
2019-02-02T20:40:31.992Z,3.30
2019-02-02T20:43:00.767Z,3.30
2019-02-02T20:45:31.992Z,3.30
2019-02-02T20:48:05.788Z,3.30
2019-02-02T20:50:35.456Z,3.30
2019-02-02T20:53:04.591Z,3.40
2019-02-02T20:55:36.571Z,3.40
2019-02-02T20:58:07.534Z,3.40
2019-02-02T21:00:36.947Z,3.40
2019-02-02T21:03:06.543Z,3.40
2019-02-02T21:05:36.152Z,3.40
2019-02-02T21:08:05.679Z,3.50
2019-02-02T21:10:34.665Z,3.40
2019-02-02T21:13:05.255Z,3.40
2019-02-02T21:15:35.636Z,3.40
2019-02-02T21:18:04.659Z,3.30
2019-02-02T21:20:34.135Z,3.30
2019-02-02T21:23:03.123Z,3.40
2019-02-02T21:25:34.064Z,3.50
2019-02-02T21:28:04.003Z,3.60
2019-02-02T21:30:34.623Z,3.50
2019-02-02T21:33:04.255Z,3.60
2019-02-02T21:35:34.333Z,3.50
2019-02-02T21:38:03.405Z,3.40
2019-02-02T21:40:34.103Z,3.40
2019-02-02T21:43:04.971Z,3.40
2019-02-02T21:45:34.361Z,3.40
2019-02-02T21:48:04.017Z,3.40
2019-02-02T21:50:33.628Z,3.40
2019-02-02T21:53:03.217Z,3.40
2019-02-02T21:55:32.880Z,3.30
2019-02-02T21:58:02.194Z,3.30
2019-02-02T22:00:38.128Z,3.40
2019-02-02T22:03:09.462Z,3.50
2019-02-02T22:05:38.995Z,3.50
2019-02-02T22:08:09.129Z,3.50
2019-02-02T22:10:39.665Z,3.50
2019-02-02T22:13:08.885Z,3.40
2019-02-02T22:15:38.011Z,3.40
2019-02-02T22:18:08.845Z,3.30
2019-02-02T22:20:37.790Z,3.30
2019-02-02T22:23:07.828Z,3.40
2019-02-02T22:25:37.514Z,3.40
2019-02-02T22:28:06.991Z,3.20
2019-02-02T22:30:37.103Z,3.20
2019-02-02T22:33:06.693Z,3.10
2019-02-02T22:35:36.228Z,3.10
2019-02-02T22:38:06.113Z,3.20
2019-02-02T22:40:35.147Z,3.10
2019-02-02T22:43:05.507Z,3.20
2019-02-02T22:45:34.379Z,3.30
2019-02-02T22:48:05.608Z,3.20
2019-02-02T22:50:34.638Z,3.00
2019-02-02T22:53:04.259Z,3.00
2019-02-02T22:55:34.239Z,3.00
2019-02-02T22:58:03.632Z,3.00
2019-02-02T23:01:29.155Z,3.00
2019-02-02T23:04:44.636Z,2.90
2019-02-02T23:07:45.636Z,2.70
2019-02-02T23:10:47.088Z,2.70
2019-02-02T23:13:56.915Z,2.60
2019-02-02T23:16:30.265Z,2.60
2019-02-02T23:19:00.100Z,2.60
2019-02-02T23:21:30.766Z,2.50
2019-02-02T23:24:00.103Z,2.50
2019-02-02T23:26:30.076Z,2.50
2019-02-02T23:28:59.668Z,2.40
2019-02-02T23:31:28.857Z,2.40
2019-02-02T23:33:57.711Z,2.40
2019-02-02T23:36:26.779Z,2.30
2019-02-02T23:38:56.073Z,2.30
2019-02-02T23:41:25.748Z,2.40
2019-02-02T23:43:55.562Z,2.40
2019-02-02T23:46:26.284Z,2.50
2019-02-02T23:48:55.199Z,2.60
2019-02-02T23:51:24.779Z,2.70
2019-02-02T23:53:54.294Z,2.80
2019-02-02T23:56:23.592Z,2.90
2019-02-02T23:58:52.587Z,3.00
